createdAt,value
2018-07-05T00:00:11.756Z,99.90
2018-07-05T00:02:52.135Z,99.90
2018-07-05T00:05:32.393Z,99.90
2018-07-05T00:08:12.557Z,99.90
2018-07-05T00:10:55.924Z,99.90
2018-07-05T00:13:36.381Z,99.90
2018-07-05T00:16:16.635Z,99.90
2018-07-05T00:18:56.555Z,99.90
2018-07-05T00:21:36.194Z,99.90
2018-07-05T00:24:17.119Z,99.90
2018-07-05T00:26:57.088Z,99.90
2018-07-05T00:29:37.145Z,99.90
2018-07-05T00:32:17.196Z,99.90
2018-07-05T00:34:56.936Z,99.90
2018-07-05T00:37:36.836Z,99.90
2018-07-05T00:40:16.774Z,99.90
2018-07-05T00:42:56.469Z,99.90
2018-07-05T00:45:36.355Z,99.90
2018-07-05T00:48:16.135Z,99.90
2018-07-05T00:50:57.461Z,99.90
2018-07-05T00:53:40.575Z,99.90
2018-07-05T00:56:21.264Z,99.90
2018-07-05T00:59:09.104Z,99.90
2018-07-05T01:01:49.959Z,99.90
2018-07-05T01:04:29.805Z,99.90
2018-07-05T01:07:10.948Z,99.90
2018-07-05T01:12:26.330Z,99.90
2018-07-05T01:15:06.350Z,99.90
2018-07-05T01:17:46.149Z,99.90
2018-07-05T01:22:59.953Z,99.90
2018-07-05T01:25:39.784Z,99.90
2018-07-05T01:28:20.099Z,99.90
2018-07-05T01:31:00.956Z,99.90
2018-07-05T01:33:40.929Z,99.90
2018-07-05T01:36:23.735Z,99.90
2018-07-05T01:39:04.096Z,99.90
2018-07-05T01:41:44.371Z,99.90
2018-07-05T01:44:24.286Z,99.90
2018-07-05T01:47:04.331Z,99.90
2018-07-05T01:49:44.221Z,99.90
2018-07-05T01:52:24.072Z,99.90
2018-07-05T01:55:04.063Z,99.90
2018-07-05T01:57:44.067Z,99.90
2018-07-05T02:00:24.152Z,99.90
2018-07-05T02:03:04.420Z,99.90
2018-07-05T02:05:44.445Z,99.90
2018-07-05T02:08:24.297Z,99.90
2018-07-05T02:11:04.307Z,99.90
2018-07-05T02:13:44.064Z,99.90
2018-07-05T02:16:24.296Z,99.90
2018-07-05T02:19:04.218Z,99.90
2018-07-05T02:21:44.043Z,99.90
2018-07-05T02:24:25.174Z,99.90
2018-07-05T02:27:05.162Z,99.90
2018-07-05T02:29:45.055Z,99.90
2018-07-05T02:32:24.953Z,99.90
2018-07-05T02:35:04.799Z,99.90
2018-07-05T02:37:49.978Z,99.90
2018-07-05T02:40:31.150Z,99.90
2018-07-05T02:43:13.089Z,99.90
2018-07-05T02:45:53.645Z,99.90
2018-07-05T02:48:33.841Z,99.90
2018-07-05T02:51:13.898Z,99.90
2018-07-05T02:53:54.190Z,99.90
2018-07-05T02:59:08.461Z,99.90
2018-07-05T03:01:48.593Z,99.90
2018-07-05T03:04:28.684Z,99.90
2018-07-05T03:07:08.638Z,99.90
2018-07-05T03:09:48.625Z,99.90
2018-07-05T03:12:28.207Z,99.90
2018-07-05T03:15:09.325Z,99.90
2018-07-05T03:17:49.032Z,99.90
2018-07-05T03:20:28.844Z,99.90
2018-07-05T03:23:08.603Z,99.90
2018-07-05T03:25:48.366Z,99.90
2018-07-05T03:28:28.948Z,99.90
2018-07-05T03:31:11.447Z,99.90
2018-07-05T03:33:56.418Z,99.90
2018-07-05T03:36:38.111Z,99.90
2018-07-05T03:41:55.395Z,99.90
2018-07-05T03:44:45.170Z,99.90
2018-07-05T03:47:26.661Z,99.90
2018-07-05T03:50:07.344Z,99.90
2018-07-05T03:52:47.272Z,99.90
2018-07-05T03:55:27.361Z,99.90
2018-07-05T03:58:07.226Z,99.90
2018-07-05T04:00:47.035Z,99.90
2018-07-05T04:03:27.090Z,99.90
2018-07-05T04:06:07.553Z,99.90
2018-07-05T04:08:47.935Z,99.90
2018-07-05T04:11:27.999Z,99.90
2018-07-05T04:14:08.281Z,99.90
2018-07-05T04:16:48.695Z,99.90
2018-07-05T04:19:29.097Z,99.90
2018-07-05T04:22:09.023Z,99.90
2018-07-05T04:24:48.731Z,99.90
2018-07-05T04:27:29.490Z,99.90
2018-07-05T04:30:09.896Z,99.90
2018-07-05T04:32:49.860Z,99.90
2018-07-05T04:35:30.098Z,99.90
2018-07-05T04:38:10.041Z,99.90
2018-07-05T04:40:49.863Z,99.90
2018-07-05T04:43:29.956Z,99.90
2018-07-05T04:46:10.010Z,99.90
2018-07-05T04:48:49.931Z,99.90
2018-07-05T04:51:29.949Z,99.90
2018-07-05T04:54:09.637Z,99.90
2018-07-05T04:56:49.699Z,99.90
2018-07-05T04:59:30.195Z,99.90
2018-07-05T05:02:10.756Z,99.90
2018-07-05T05:04:51.398Z,99.90
2018-07-05T05:07:31.297Z,99.90
2018-07-05T05:10:11.167Z,99.90
2018-07-05T05:12:50.911Z,99.90
2018-07-05T05:15:30.664Z,99.90
2018-07-05T05:18:10.812Z,99.90
2018-07-05T05:20:51.550Z,99.90
2018-07-05T05:23:31.268Z,99.90
2018-07-05T05:26:11.930Z,99.90
2018-07-05T05:28:51.802Z,99.90
2018-07-05T05:31:31.682Z,99.90
2018-07-05T05:34:11.701Z,99.90
2018-07-05T05:39:26.370Z,99.90
2018-07-05T05:42:06.274Z,99.90
2018-07-05T05:44:46.157Z,99.90
2018-07-05T05:47:25.962Z,99.90
2018-07-05T05:50:06.034Z,99.90
2018-07-05T05:52:45.759Z,99.90
2018-07-05T05:55:25.711Z,99.90
2018-07-05T05:58:05.873Z,99.90
2018-07-05T06:00:45.576Z,99.90
2018-07-05T06:03:25.403Z,99.90
2018-07-05T06:06:05.265Z,99.90
2018-07-05T06:08:45.512Z,99.90
2018-07-05T06:11:25.201Z,99.90
2018-07-05T06:14:05.457Z,99.90
2018-07-05T06:16:45.591Z,99.90
2018-07-05T06:19:25.512Z,99.90
2018-07-05T06:22:05.380Z,99.90
2018-07-05T06:24:45.188Z,99.90
2018-07-05T06:27:24.992Z,99.90
2018-07-05T06:30:04.862Z,99.90
2018-07-05T06:32:44.820Z,99.90
2018-07-05T06:35:24.942Z,99.90
2018-07-05T06:38:05.946Z,99.90
2018-07-05T06:40:45.686Z,99.90
2018-07-05T06:43:27.087Z,99.90
2018-07-05T06:46:07.016Z,99.90
2018-07-05T06:48:50.135Z,99.90
2018-07-05T06:51:29.990Z,99.90
2018-07-05T06:54:09.727Z,99.90
2018-07-05T06:56:50.230Z,99.90
2018-07-05T06:59:29.972Z,99.90
2018-07-05T07:02:10.461Z,99.90
2018-07-05T07:04:50.312Z,99.90
2018-07-05T07:07:30.066Z,99.90
2018-07-05T07:10:09.961Z,99.90
2018-07-05T07:12:50.887Z,99.90
2018-07-05T07:15:31.028Z,99.90
2018-07-05T07:18:10.950Z,99.90
2018-07-05T07:20:51.355Z,99.90
2018-07-05T07:23:31.164Z,99.90
2018-07-05T07:26:11.043Z,99.90
2018-07-05T07:28:51.904Z,99.90
2018-07-05T07:31:31.911Z,99.90
2018-07-05T07:34:11.611Z,99.90
2018-07-05T07:39:26.052Z,99.90
2018-07-05T07:41:53.928Z,99.90
2018-07-05T07:44:22.676Z,99.90
2018-07-05T07:46:50.348Z,99.90
2018-07-05T07:49:17.795Z,99.90
2018-07-05T07:51:45.555Z,99.90
2018-07-05T07:54:13.014Z,99.90
2018-07-05T07:56:41.968Z,99.90
2018-07-05T07:59:09.753Z,99.90
2018-07-05T08:01:37.344Z,99.90
2018-07-05T08:04:05.109Z,99.90
2018-07-05T08:06:33.102Z,99.90
2018-07-05T08:09:01.843Z,99.90
2018-07-05T08:11:30.271Z,99.90
2018-07-05T08:13:57.722Z,99.90
2018-07-05T08:16:25.291Z,99.90
2018-07-05T08:18:52.983Z,99.90
2018-07-05T08:21:20.716Z,99.90
2018-07-05T08:23:48.474Z,99.90
2018-07-05T08:26:16.352Z,99.90
2018-07-05T08:28:44.100Z,99.90
2018-07-05T08:31:11.950Z,99.90
2018-07-05T08:33:39.516Z,99.90
2018-07-05T08:36:07.001Z,99.90
2018-07-05T08:38:34.652Z,99.90
2018-07-05T08:41:02.167Z,99.90
2018-07-05T08:43:33.437Z,99.90
2018-07-05T08:46:00.996Z,99.90
2018-07-05T08:48:30.384Z,99.90
2018-07-05T08:50:58.408Z,99.90
2018-07-05T08:53:26.151Z,99.90
2018-07-05T08:55:53.624Z,99.90
2018-07-05T08:58:21.390Z,99.90
2018-07-05T09:00:49.257Z,99.90
2018-07-05T09:03:17.201Z,99.90
2018-07-05T09:05:44.952Z,99.90
2018-07-05T09:08:12.492Z,99.90
2018-07-05T09:10:40.298Z,99.90
2018-07-05T09:13:09.207Z,99.90
2018-07-05T09:15:36.714Z,99.90
2018-07-05T09:18:04.448Z,99.90
2018-07-05T09:20:32.038Z,99.90
2018-07-05T09:22:59.789Z,99.90
2018-07-05T09:25:29.475Z,99.90
2018-07-05T09:27:56.916Z,99.90
2018-07-05T09:30:24.464Z,99.90
2018-07-05T09:32:52.920Z,99.90
2018-07-05T09:35:20.378Z,99.90
2018-07-05T09:37:49.481Z,99.90
2018-07-05T09:40:17.786Z,99.90
2018-07-05T09:42:45.543Z,99.90
2018-07-05T09:45:13.289Z,99.90
2018-07-05T09:47:41.574Z,99.90
2018-07-05T09:50:09.140Z,99.90
2018-07-05T09:52:37.016Z,99.90
2018-07-05T09:55:04.574Z,99.90
2018-07-05T09:57:32.435Z,99.90
2018-07-05T10:00:00.207Z,99.90
2018-07-05T10:02:27.715Z,99.90
2018-07-05T10:04:55.153Z,99.90
2018-07-05T10:07:23.032Z,99.90
2018-07-05T10:09:54.578Z,99.90
2018-07-05T10:12:29.423Z,99.90
2018-07-05T10:14:57.237Z,99.90
2018-07-05T10:17:24.724Z,99.90
2018-07-05T10:19:52.849Z,99.90
2018-07-05T10:22:20.860Z,99.90
2018-07-05T10:24:49.939Z,99.90
2018-07-05T10:27:17.474Z,99.90
2018-07-05T10:29:58.024Z,99.90
2018-07-05T10:32:38.343Z,99.90
2018-07-05T10:35:06.454Z,99.90
2018-07-05T10:37:34.114Z,99.90
2018-07-05T10:40:13.959Z,99.90
2018-07-05T10:42:54.443Z,99.90
2018-07-05T10:45:35.241Z,99.90
2018-07-05T10:48:15.338Z,99.90
2018-07-05T10:50:55.300Z,99.90
2018-07-05T10:53:36.654Z,99.90
2018-07-05T10:56:16.641Z,99.90
2018-07-05T11:01:30.158Z,99.90
2018-07-05T11:04:10.300Z,99.90
2018-07-05T11:06:50.724Z,99.90
2018-07-05T11:09:31.107Z,99.90
2018-07-05T11:12:10.800Z,99.90
2018-07-05T11:14:51.784Z,99.90
2018-07-05T11:17:31.848Z,99.90
2018-07-05T11:20:12.253Z,99.90
2018-07-05T11:22:52.877Z,99.90
2018-07-05T11:25:32.837Z,99.90
2018-07-05T11:28:14.764Z,99.90
2018-07-05T11:30:55.488Z,99.90
2018-07-05T11:33:35.273Z,99.90
2018-07-05T11:36:15.836Z,99.90
2018-07-05T11:38:56.191Z,99.90
2018-07-05T11:41:36.342Z,99.90
2018-07-05T11:44:16.228Z,99.90
2018-07-05T11:46:56.479Z,99.90
2018-07-05T11:49:36.329Z,99.90
2018-07-05T11:52:16.215Z,99.90
2018-07-05T11:54:57.021Z,99.90
2018-07-05T11:57:37.268Z,99.90
2018-07-05T12:00:18.384Z,99.90
2018-07-05T12:02:58.110Z,99.90
2018-07-05T12:05:38.416Z,99.90
2018-07-05T12:08:18.661Z,99.90
2018-07-05T12:10:58.537Z,99.90
2018-07-05T12:13:38.320Z,99.90
2018-07-05T12:16:18.535Z,99.90
2018-07-05T12:18:58.196Z,99.90
2018-07-05T12:21:38.119Z,99.90
2018-07-05T12:24:17.981Z,99.90
2018-07-05T12:26:57.754Z,99.90
2018-07-05T12:29:37.608Z,99.90
2018-07-05T12:32:17.388Z,99.90
2018-07-05T12:34:57.380Z,99.90
2018-07-05T12:37:39.077Z,99.90
2018-07-05T12:40:18.906Z,99.90
2018-07-05T12:42:59.096Z,99.90
2018-07-05T12:45:38.799Z,99.90
2018-07-05T12:51:02.225Z,99.90
2018-07-05T12:53:42.224Z,99.90
2018-07-05T12:56:22.766Z,99.90
2018-07-05T12:59:02.657Z,99.90
2018-07-05T13:01:42.633Z,99.90
2018-07-05T13:04:22.684Z,99.90
2018-07-05T13:07:02.636Z,99.90
2018-07-05T13:09:42.444Z,99.90
2018-07-05T13:12:22.315Z,99.90
2018-07-05T13:15:02.101Z,99.90
2018-07-05T13:17:42.101Z,99.90
2018-07-05T13:20:21.868Z,99.90
2018-07-05T13:23:01.629Z,99.90
2018-07-05T13:25:41.827Z,99.90
2018-07-05T13:28:21.545Z,99.90
2018-07-05T13:31:01.501Z,99.90
2018-07-05T13:33:41.501Z,99.90
2018-07-05T13:36:21.253Z,99.90
2018-07-05T13:39:01.060Z,99.90
2018-07-05T13:41:41.973Z,99.90
2018-07-05T13:44:21.695Z,99.90
2018-07-05T13:47:01.625Z,99.90
2018-07-05T13:49:41.662Z,99.90
2018-07-05T13:52:21.379Z,99.90
2018-07-05T13:55:01.274Z,99.90
2018-07-05T13:57:41.791Z,99.90
2018-07-05T14:00:21.580Z,99.90
2018-07-05T14:03:01.632Z,99.90
2018-07-05T14:05:41.534Z,99.90
2018-07-05T14:08:22.036Z,99.90
2018-07-05T14:11:02.015Z,99.90
2018-07-05T14:13:41.879Z,99.90
2018-07-05T14:16:22.101Z,99.90
2018-07-05T14:19:01.914Z,99.90
2018-07-05T14:21:42.248Z,99.90
2018-07-05T14:26:56.002Z,99.90
2018-07-05T14:29:35.872Z,99.90
2018-07-05T14:32:15.741Z,99.90
2018-07-05T14:34:55.427Z,99.90
2018-07-05T14:37:36.477Z,99.90
2018-07-05T14:40:17.719Z,99.90
2018-07-05T14:43:01.705Z,99.90
2018-07-05T14:45:42.096Z,99.90
2018-07-05T14:48:23.514Z,99.90
2018-07-05T14:51:04.893Z,99.90
2018-07-05T14:53:44.729Z,99.90
2018-07-05T14:56:24.733Z,99.90
2018-07-05T14:59:04.575Z,99.90
2018-07-05T15:01:44.344Z,99.90
2018-07-05T15:04:24.335Z,99.90
2018-07-05T15:07:04.098Z,99.90
2018-07-05T15:09:44.139Z,99.90
2018-07-05T15:12:25.364Z,99.90
2018-07-05T15:15:05.303Z,99.90
2018-07-05T15:17:45.825Z,99.90
2018-07-05T15:20:25.499Z,99.90
2018-07-05T15:23:05.342Z,99.90
2018-07-05T15:25:45.169Z,99.90
2018-07-05T15:28:25.552Z,99.90
2018-07-05T15:31:17.010Z,99.90
2018-07-05T15:33:58.744Z,99.90
2018-07-05T15:36:38.400Z,99.90
2018-07-05T15:39:18.689Z,99.90
2018-07-05T15:41:59.888Z,99.90
2018-07-05T15:44:39.920Z,99.90
2018-07-05T15:47:21.172Z,99.90
2018-07-05T15:50:01.029Z,99.90
2018-07-05T15:52:40.871Z,99.90
2018-07-05T15:55:21.500Z,99.90
2018-07-05T15:58:02.736Z,98.90
2018-07-05T16:00:42.542Z,99.90
2018-07-05T16:03:22.268Z,99.50
2018-07-05T16:06:02.960Z,99.90
2018-07-05T16:08:44.657Z,99.10
2018-07-05T16:11:25.134Z,99.00
2018-07-05T16:14:04.947Z,99.20
2018-07-05T16:16:44.686Z,98.60
2018-07-05T16:19:24.633Z,98.30
2018-07-05T16:22:04.321Z,99.00
2018-07-05T16:24:44.327Z,98.40
2018-07-05T16:27:24.223Z,98.70
2018-07-05T16:30:04.017Z,98.90
2018-07-05T16:32:45.622Z,99.20
2018-07-05T16:35:25.444Z,98.80
2018-07-05T16:38:05.262Z,99.30
2018-07-05T16:40:44.933Z,99.60
2018-07-05T16:43:25.951Z,98.70
2018-07-05T16:46:06.020Z,98.40
2018-07-05T16:48:46.258Z,98.40
2018-07-05T16:51:26.669Z,99.20
2018-07-05T16:54:16.292Z,99.50
2018-07-05T16:57:01.590Z,99.90
2018-07-05T17:00:00.894Z,99.80
2018-07-05T17:02:40.879Z,98.10
2018-07-05T17:05:20.776Z,99.70
2018-07-05T17:08:12.154Z,99.30
2018-07-05T17:10:52.976Z,99.30
2018-07-05T17:16:07.297Z,99.30
2018-07-05T17:18:47.664Z,99.20
2018-07-05T17:21:27.670Z,99.00
2018-07-05T17:24:08.193Z,98.20
2018-07-05T17:26:48.181Z,98.20
2018-07-05T17:29:28.106Z,97.80
2018-07-05T17:32:08.215Z,97.60
2018-07-05T17:34:48.106Z,98.90
2018-07-05T17:37:28.857Z,98.10
2018-07-05T17:40:08.480Z,99.10
2018-07-05T17:42:48.769Z,99.20
2018-07-05T17:45:28.812Z,98.60
2018-07-05T17:48:08.840Z,98.00
2018-07-05T17:50:48.628Z,98.30
2018-07-05T17:53:29.520Z,99.10
2018-07-05T17:56:09.388Z,98.30
2018-07-05T17:58:49.256Z,98.60
2018-07-05T18:01:29.415Z,99.00
2018-07-05T18:04:10.827Z,98.60
2018-07-05T18:06:51.158Z,98.40
2018-07-05T18:09:30.976Z,98.80
2018-07-05T18:12:10.833Z,98.60
2018-07-05T18:14:51.031Z,98.60
2018-07-05T18:17:31.020Z,98.10
2018-07-05T18:20:10.971Z,98.20
2018-07-05T18:22:51.980Z,98.00
2018-07-05T18:25:31.902Z,96.60
2018-07-05T18:28:11.748Z,95.70
2018-07-05T18:30:51.981Z,96.00
2018-07-05T18:33:34.196Z,95.70
2018-07-05T18:36:14.340Z,94.80
2018-07-05T18:38:54.460Z,94.90
2018-07-05T18:41:34.230Z,94.40
2018-07-05T18:44:14.083Z,94.60
2018-07-05T18:46:54.707Z,94.60
2018-07-05T18:49:34.661Z,94.70
2018-07-05T18:52:14.494Z,94.80
2018-07-05T18:54:54.304Z,95.20
2018-07-05T18:57:34.037Z,94.70
2018-07-05T19:00:13.947Z,94.60
2018-07-05T19:02:53.786Z,95.20
2018-07-05T19:05:33.860Z,95.80
2018-07-05T19:08:13.862Z,95.50
2018-07-05T19:13:27.875Z,95.30
2018-07-05T19:16:07.911Z,95.50
2018-07-05T19:18:47.685Z,96.10
2018-07-05T19:21:27.521Z,94.60
2018-07-05T19:24:07.503Z,94.30
2018-07-05T19:26:47.422Z,94.40
2018-07-05T19:29:27.136Z,95.30
2018-07-05T19:32:06.967Z,95.10
2018-07-05T19:37:20.640Z,95.30
2018-07-05T19:40:00.484Z,96.80
2018-07-05T19:42:40.112Z,96.40
2018-07-05T19:45:20.685Z,97.40
2018-07-05T19:48:00.436Z,99.10
2018-07-05T19:50:40.441Z,99.90
2018-07-05T19:53:20.287Z,99.90
2018-07-05T19:56:00.229Z,99.90
2018-07-05T19:58:40.024Z,99.40
2018-07-05T20:01:20.353Z,99.60
2018-07-05T20:04:00.358Z,99.90
2018-07-05T20:06:40.762Z,99.90
2018-07-05T20:09:20.636Z,99.90
2018-07-05T20:12:07.555Z,99.90
2018-07-05T20:14:47.738Z,99.90
2018-07-05T20:17:27.953Z,99.90
2018-07-05T20:20:08.370Z,99.90
2018-07-05T20:22:48.229Z,99.90
2018-07-05T20:25:29.092Z,99.90
2018-07-05T20:28:09.218Z,99.90
2018-07-05T20:30:49.022Z,99.90
2018-07-05T20:33:29.129Z,99.90
2018-07-05T20:36:09.128Z,99.90
2018-07-05T20:38:49.001Z,99.90
2018-07-05T20:41:29.809Z,99.90
2018-07-05T20:44:09.756Z,99.90
2018-07-05T20:46:50.370Z,99.90
2018-07-05T20:49:30.198Z,99.90
2018-07-05T20:52:09.915Z,99.90
2018-07-05T20:54:50.214Z,99.90
2018-07-05T20:57:30.257Z,99.90
2018-07-05T21:00:10.212Z,99.90
2018-07-05T21:02:50.351Z,99.90
2018-07-05T21:05:30.498Z,99.90
2018-07-05T21:08:10.378Z,99.90
2018-07-05T21:10:50.112Z,99.90
2018-07-05T21:13:31.274Z,99.90
2018-07-05T21:16:10.924Z,99.90
2018-07-05T21:18:51.286Z,99.90
2018-07-05T21:21:32.093Z,99.90
2018-07-05T21:24:11.918Z,99.90
2018-07-05T21:26:52.643Z,99.90
2018-07-05T21:29:33.242Z,99.90
2018-07-05T21:32:13.004Z,99.90
2018-07-05T21:34:53.347Z,99.90
2018-07-05T21:37:33.904Z,99.90
2018-07-05T21:40:14.438Z,99.90
2018-07-05T21:47:56.513Z,99.90
2018-07-05T21:50:36.370Z,99.90
2018-07-05T21:53:16.225Z,99.90
2018-07-05T21:55:56.182Z,99.90
2018-07-05T21:58:40.213Z,99.90
2018-07-05T22:01:20.025Z,99.90
2018-07-05T22:04:01.227Z,99.90
2018-07-05T22:06:41.707Z,99.90
2018-07-05T22:09:21.462Z,99.90
2018-07-05T22:12:01.233Z,99.90
2018-07-05T22:14:41.092Z,99.90
2018-07-05T22:17:26.125Z,99.90
2018-07-05T22:21:15.494Z,99.90
2018-07-05T22:24:00.458Z,99.90
2018-07-05T22:26:46.694Z,99.90
2018-07-05T22:29:31.819Z,99.90
2018-07-05T22:32:12.437Z,99.90
2018-07-05T22:34:52.369Z,99.90
2018-07-05T22:37:32.411Z,99.90
2018-07-05T22:40:12.151Z,99.90
2018-07-05T22:42:52.465Z,99.90
2018-07-05T22:45:32.277Z,99.90
2018-07-05T22:48:12.170Z,99.90
2018-07-05T22:50:51.896Z,99.90
2018-07-05T22:53:31.713Z,99.90
2018-07-05T22:56:11.843Z,99.90
2018-07-05T22:58:51.779Z,99.90
2018-07-05T23:01:31.678Z,99.90
2018-07-05T23:04:11.394Z,99.90
2018-07-05T23:06:51.452Z,99.90
2018-07-05T23:09:32.317Z,99.90
2018-07-05T23:12:12.144Z,99.90
2018-07-05T23:14:52.259Z,99.90
2018-07-05T23:17:33.237Z,99.90
2018-07-05T23:22:48.488Z,99.90
2018-07-05T23:25:28.860Z,99.90
2018-07-05T23:28:09.001Z,99.90
2018-07-05T23:30:49.007Z,99.90
2018-07-05T23:36:02.772Z,99.90
2018-07-05T23:38:42.802Z,99.90
2018-07-05T23:41:23.353Z,99.90
2018-07-05T23:44:03.076Z,99.90
2018-07-05T23:46:42.970Z,99.90
2018-07-05T23:49:24.181Z,99.90
2018-07-05T23:52:03.946Z,99.90
2018-07-05T23:54:43.781Z,99.90
2018-07-05T23:57:24.089Z,99.90
